Time;durP1;ratioP1;P1;durP2;ratioP2;P2;SDS_P1;SDS_P2;PMS_P1;PMS_P2;Temp;Humidity;BMP_temperature;BMP_pressure;BME280_temperature;BME280_humidity;BME280_pressure;Samples;Min_cycle;Max_cycle;Signal;HPM_P1;HPM_P2
2022/07/01 00:02:08;;;;;;;;;3.00;3.00;;;;;26.62;49.46;98048.81;4911476;28;104423;-61
2022/07/01 00:04:41;;;;;;;;;2.00;2.00;;;;;26.63;49.39;98056.00;4932036;28;104198;-61
2022/07/01 00:07:10;;;;;;;;;4.00;2.33;;;;;26.62;49.47;98049.63;4909723;28;102124;-62
2022/07/01 00:09:37;;;;;;;;;0.67;0.67;;;;;26.61;49.47;98047.97;4906145;28;102597;-61
2022/07/01 00:12:06;;;;;;;;;1.67;1.67;;;;;26.61;49.64;98047.97;4892231;28;102181;-61
2022/07/01 00:14:33;;;;;;;;;1.33;1.33;;;;;26.61;49.56;98041.66;4907970;28;104039;-61
2022/07/01 00:17:00;;;;;;;;;1.00;1.00;;;;;26.59;49.49;98039.19;4919661;28;101993;-62
2022/07/01 00:19:27;;;;;;;;;3.00;2.33;;;;;26.59;49.60;98041.97;4936185;28;105977;-61
2022/07/01 00:21:55;;;;;;;;;3.33;2.67;;;;;26.59;49.45;98035.59;4929815;28;102628;-61
2022/07/01 00:24:22;;;;;;;;;2.00;2.00;;;;;26.57;49.54;98030.34;4925069;28;104249;-62
2022/07/01 00:26:49;;;;;;;;;1.00;1.00;;;;;26.58;49.46;98043.09;4919529;28;103413;-61
2022/07/01 00:29:16;;;;;;;;;3.00;3.00;;;;;26.59;49.53;98041.13;4934652;28;102309;-62
2022/07/01 00:31:44;;;;;;;;;2.00;1.00;;;;;26.58;49.57;98043.09;4921153;28;102492;-62
2022/07/01 00:34:14;;;;;;;;;1.00;1.00;;;;;26.58;49.61;98032.00;4921276;28;104249;-62
2022/07/01 00:36:42;;;;;;;;;1.00;1.00;;;;;26.58;49.56;98031.16;4912744;28;102040;-61
2022/07/01 00:39:09;;;;;;;;;1.33;1.00;;;;;26.57;49.55;98038.66;4920824;28;102365;-61
2022/07/01 00:41:37;;;;;;;;;2.00;2.00;;;;;26.57;49.33;98027.56;4924045;28;104252;-61
2022/07/01 00:44:04;;;;;;;;;2.00;2.00;;;;;26.57;49.64;98035.91;4935988;28;105627;-62
2022/07/01 00:46:31;;;;;;;;;2.33;2.33;;;;;26.56;49.57;98028.72;4921541;28;102196;-62
2022/07/01 00:49:00;;;;;;;;;3.00;3.00;;;;;26.55;49.39;98027.09;4959988;28;102110;-62
2022/07/01 00:51:27;;;;;;;;;3.00;2.33;;;;;26.55;49.64;98029.88;4920908;28;104068;-62
2022/07/01 00:53:54;;;;;;;;;3.33;3.00;;;;;26.54;49.59;98017.13;4921536;28;104244;-61
2022/07/01 00:56:21;;;;;;;;;3.00;2.33;;;;;26.53;49.60;98018.25;4934591;28;102237;-62
2022/07/01 00:58:48;;;;;;;;;4.00;3.00;;;;;26.53;49.55;98017.44;4918549;28;102120;-62
2022/07/01 01:01:15;;;;;;;;;2.67;2.67;;;;;26.52;49.52;98022.16;4862156;28;102558;-61
2022/07/01 01:03:43;;;;;;;;;3.00;3.00;;;;;26.52;49.73;98011.06;4868417;28;104254;-61
2022/07/01 01:06:10;;;;;;;;;3.00;2.33;;;;;26.52;49.63;98016.63;4841569;28;102217;-62
2022/07/01 01:08:37;;;;;;;;;3.00;3.00;;;;;26.53;49.70;98009.13;4834004;28;102403;-61
2022/07/01 01:11:04;;;;;;;;;2.00;2.00;;;;;26.52;49.77;98019.38;4804037;28;102531;-62
2022/07/01 01:13:31;;;;;;;;;3.00;3.00;;;;;26.52;49.48;98016.63;4857246;28;104116;-61
2022/07/01 01:15:58;;;;;;;;;2.00;1.67;;;;;26.52;49.68;98024.94;4864042;28;108466;-61
2022/07/01 01:18:26;;;;;;;;;3.67;3.00;;;;;26.51;49.66;98026.09;4868685;28;103899;-61
2022/07/01 01:20:53;;;;;;;;;2.00;2.00;;;;;26.50;49.64;98024.44;4920515;28;102274;-61
2022/07/01 01:23:21;;;;;;;;;3.00;3.00;;;;;26.50;49.65;98027.22;4930022;28;104384;-62
2022/07/01 01:25:48;;;;;;;;;1.00;1.00;;;;;26.49;49.68;98024.75;4932277;28;102476;-61
2022/07/01 01:28:15;;;;;;;;;2.00;2.00;;;;;26.48;49.77;98015.63;4923363;28;102243;-62
2022/07/01 01:30:43;;;;;;;;;1.67;1.67;;;;;26.48;49.68;98023.94;4914847;28;102700;-61
2022/07/01 01:33:11;;;;;;;;;2.33;2.33;;;;;26.48;49.74;98021.16;4942931;28;104367;-61
2022/07/01 01:35:39;;;;;;;;;2.00;2.00;;;;;26.48;49.69;98021.16;4930918;28;102206;-62
2022/07/01 01:38:06;;;;;;;;;2.00;2.00;;;;;26.49;49.62;98022.81;4933041;28;102174;-61
2022/07/01 01:40:33;;;;;;;;;2.00;2.00;;;;;26.48;49.57;98023.94;4922271;28;102491;-61
2022/07/01 01:43:00;;;;;;;;;2.00;1.67;;;;;26.49;49.60;98027.53;4924485;28;103998;-62
2022/07/01 01:45:28;;;;;;;;;2.33;2.33;;;;;26.48;49.57;98029.47;4935431;28;102383;-61
2022/07/01 01:47:55;;;;;;;;;2.33;2.00;;;;;26.48;49.70;98015.63;4935343;28;102259;-61
2022/07/01 01:50:22;;;;;;;;;2.67;2.67;;;;;26.47;49.67;98019.56;4913699;28;102211;-61
2022/07/01 01:52:49;;;;;;;;;4.00;3.00;;;;;26.46;49.74;98020.69;4926790;28;104301;-61
2022/07/01 01:55:17;;;;;;;;;1.00;1.00;;;;;26.47;49.63;98018.72;4926391;28;102329;-61
2022/07/01 01:57:44;;;;;;;;;2.33;2.00;;;;;26.47;49.72;98013.19;4936810;28;103049;-61
2022/07/01 02:00:12;;;;;;;;;2.00;2.00;;;;;26.46;49.68;98026.22;4938567;28;102653;-62
2022/07/01 02:02:39;;;;;;;;;2.67;2.67;;;;;26.45;49.66;98027.34;4941254;28;104264;-61
2022/07/01 02:05:08;;;;;;;;;2.00;2.00;;;;;26.46;49.63;98029.00;4931261;28;103147;-61
2022/07/01 02:07:35;;;;;;;;;2.33;2.33;;;;;26.45;49.74;98021.81;4933000;28;103090;-61
2022/07/01 02:10:02;;;;;;;;;4.00;4.00;;;;;26.45;49.58;98024.59;4943539;28;102094;-61
2022/07/01 02:12:30;;;;;;;;;2.33;2.33;;;;;26.46;49.67;98023.47;4956934;28;104261;-61
2022/07/01 02:14:57;;;;;;;;;1.67;1.00;;;;;26.47;49.66;98021.50;4943904;28;105640;-61
2022/07/01 02:17:25;;;;;;;;;2.33;2.00;;;;;26.46;49.65;98022.63;4937584;28;102234;-62
2022/07/01 02:19:53;;;;;;;;;2.00;2.00;;;;;26.45;49.57;98027.34;4932188;28;102284;-61
2022/07/01 02:22:20;;;;;;;;;4.00;3.00;;;;;26.44;49.72;98035.97;4919887;28;104093;-61
2022/07/01 02:24:47;;;;;;;;;2.67;2.67;;;;;26.44;49.69;98036.81;4929823;28;102487;-61
2022/07/01 02:27:14;;;;;;;;;3.67;2.67;;;;;26.44;49.75;98042.34;4921587;28;104156;-61
2022/07/01 02:29:44;;;;;;;;;2.33;2.33;;;;;26.43;49.63;98037.94;4938548;28;102243;-61
2022/07/01 02:32:11;;;;;;;;;2.67;2.67;;;;;26.43;49.78;98045.47;4914676;28;104192;-62
2022/07/01 02:34:38;;;;;;;;;2.67;2.00;;;;;26.44;49.58;98041.53;4916750;28;105653;-62
2022/07/01 02:37:05;;;;;;;;;2.67;2.67;;;;;26.43;49.65;98042.69;4928691;28;102173;-61
2022/07/01 02:39:33;;;;;;;;;2.67;2.67;;;;;26.42;49.66;98055.72;4907394;28;102543;-62
2022/07/01 02:44:46;;;;;;;;;3.00;3.00;;;;;26.42;49.53;98058.50;4934335;28;102597;-61
2022/07/01 02:47:13;;;;;;;;;2.00;2.00;;;;;26.43;49.59;98053.78;4943767;28;102163;-61
2022/07/01 02:49:41;;;;;;;;;1.33;1.33;;;;;26.42;49.61;98057.69;4939543;28;102205;-61
2022/07/01 02:52:08;;;;;;;;;2.00;2.00;;;;;26.42;49.78;98060.44;4937025;28;104579;-62
2022/07/01 02:54:36;;;;;;;;;2.33;2.33;;;;;26.42;49.57;98054.91;4939866;28;102406;-61
2022/07/01 02:57:04;;;;;;;;;2.00;2.00;;;;;26.42;49.65;98061.28;4942486;28;102251;-62
2022/07/01 02:59:31;;;;;;;;;2.67;2.00;;;;;26.40;49.79;98058.00;4932164;28;103949;-61
2022/07/01 03:01:58;;;;;;;;;4.33;4.33;;;;;26.40;49.79;98051.63;4942214;28;104057;-61
2022/07/01 03:04:25;;;;;;;;;2.00;2.00;;;;;26.40;49.65;98052.44;4921903;28;103015;-62
2022/07/01 03:06:52;;;;;;;;;2.00;2.00;;;;;26.40;49.71;98058.00;4941129;28;102031;-61
2022/07/01 03:09:19;;;;;;;;;3.33;2.67;;;;;26.40;49.72;98059.94;4938310;28;102106;-61
2022/07/01 03:11:46;;;;;;;;;3.00;3.00;;;;;26.39;49.57;98055.53;4933145;28;104150;-61
2022/07/01 03:14:13;;;;;;;;;3.67;3.67;;;;;26.39;49.69;98058.28;4931534;28;102137;-61
2022/07/01 03:16:41;;;;;;;;;2.00;2.00;;;;;26.40;49.62;98055.22;4938776;28;102459;-61
2022/07/01 03:19:09;;;;;;;;;3.00;3.00;;;;;26.40;49.67;98049.66;4935182;28;102456;-61
2022/07/01 03:21:36;;;;;;;;;4.00;4.00;;;;;26.40;49.60;98060.75;4936403;28;104163;-61
2022/07/01 03:24:03;;;;;;;;;3.67;3.00;;;;;26.40;49.67;98062.72;4922730;28;102154;-61
2022/07/01 03:26:30;;;;;;;;;2.00;2.00;;;;;26.37;49.56;98053.09;4929912;28;102090;-62
2022/07/01 03:29:04;;;;;;;;;3.00;3.00;;;;;26.37;49.71;98061.41;4932635;28;102363;-62
2022/07/01 03:31:31;;;;;;;;;3.33;3.00;;;;;26.37;49.77;98058.63;4942039;28;109140;-62
2022/07/01 03:33:58;;;;;;;;;3.00;3.00;;;;;26.37;49.72;98058.63;4935333;28;102263;-61
2022/07/01 03:36:25;;;;;;;;;2.33;2.33;;;;;26.36;49.66;98057.00;4943048;28;102620;-62
2022/07/01 03:38:52;;;;;;;;;2.67;2.67;;;;;26.36;49.64;98057.00;4931035;28;103296;-62
2022/07/01 03:41:20;;;;;;;;;3.00;3.00;;;;;26.35;49.57;98055.34;4932502;28;104085;-62
2022/07/01 03:43:47;;;;;;;;;2.00;1.67;;;;;26.35;49.73;98066.44;4926509;28;102464;-61
2022/07/01 03:46:14;;;;;;;;;1.00;1.00;;;;;26.36;49.60;98068.06;4920329;28;102207;-61
2022/07/01 03:48:41;;;;;;;;;2.67;2.00;;;;;26.36;49.67;98076.41;4925402;28;102558;-62
2022/07/01 03:51:08;;;;;;;;;2.67;2.67;;;;;26.38;49.69;98065.00;4927827;28;104116;-61
2022/07/01 03:56:21;;;;;;;;;1.33;1.33;;;;;26.38;49.62;98068.59;4935860;28;102180;-62
2022/07/01 03:58:48;;;;;;;;;4.00;4.00;;;;;26.36;49.66;98076.41;4934784;28;102176;-62
2022/07/01 04:01:16;;;;;;;;;3.00;3.00;;;;;26.36;49.68;98072.81;4915330;28;104237;-62
2022/07/01 04:03:43;;;;;;;;;3.00;3.00;;;;;26.36;49.71;98070.03;4935195;28;102393;-62
2022/07/01 04:06:10;;;;;;;;;5.00;3.00;;;;;26.34;49.68;98075.91;4936220;28;102402;-62
2022/07/01 04:08:37;;;;;;;;;2.67;1.67;;;;;26.35;49.72;98071.97;4934903;28;102523;-61
2022/07/01 04:11:08;;;;;;;;;3.00;3.00;;;;;26.34;49.67;98073.13;4946306;28;105267;-62
2022/07/01 04:13:38;;;;;;;;;3.00;2.00;;;;;26.34;49.72;98075.91;4947896;28;102129;-61
2022/07/01 04:16:05;;;;;;;;;2.00;2.00;;;;;26.34;49.53;98073.13;4936739;28;102587;-62
2022/07/01 04:18:32;;;;;;;;;2.00;2.00;;;;;26.34;49.56;98073.13;4921298;28;102243;-62
2022/07/01 04:23:45;;;;;;;;;4.00;3.00;;;;;26.35;49.69;98077.53;4927794;28;102284;-62
2022/07/01 04:26:12;;;;;;;;;2.33;2.33;;;;;26.36;49.72;98078.34;4925100;28;105077;-61
2022/07/01 04:28:59;;;;;;;;;3.00;3.00;;;;;26.34;49.66;98070.38;4924892;28;104300;-62
2022/07/01 04:31:26;;;;;;;;;3.00;2.33;;;;;26.34;49.69;98081.44;4925773;28;104065;-61
2022/07/01 04:33:54;;;;;;;;;3.00;3.00;;;;;26.34;49.67;98087.00;4931232;28;102260;-62
2022/07/01 04:36:21;;;;;;;;;5.00;3.67;;;;;26.35;49.76;98087.78;4907541;28;102275;-62
2022/07/01 04:38:48;;;;;;;;;3.33;3.33;;;;;26.34;49.76;98084.22;4926395;28;102455;-61
2022/07/01 04:44:01;;;;;;;;;2.33;2.33;;;;;26.34;49.60;98078.69;4925663;28;102495;-62
2022/07/01 04:46:28;;;;;;;;;3.67;3.00;;;;;26.34;49.59;98083.41;4925604;28;102634;-62
2022/07/01 04:48:56;;;;;;;;;3.00;3.00;;;;;26.35;49.61;98088.59;4930375;28;102391;-62
2022/07/01 04:51:23;;;;;;;;;4.00;4.00;;;;;26.35;49.66;98083.06;4927424;28;104056;-62
2022/07/01 04:53:50;;;;;;;;;2.00;1.33;;;;;26.36;49.56;98081.13;4927744;28;102675;-62
2022/07/01 04:56:17;;;;;;;;;4.33;3.33;;;;;26.36;49.58;98084.72;4938013;28;102611;-62
2022/07/01 04:58:44;;;;;;;;;3.00;2.00;;;;;26.37;49.49;98086.34;4912219;28;102497;-61
2022/07/01 05:01:11;;;;;;;;;2.33;2.33;;;;;26.37;49.57;98088.31;4920093;28;104467;-61
2022/07/01 05:03:39;;;;;;;;;2.67;2.67;;;;;26.37;49.64;98091.91;4919618;28;102332;-62
2022/07/01 05:06:06;;;;;;;;;3.00;2.00;;;;;26.37;49.47;98085.53;4929509;28;102527;-62
2022/07/01 05:08:33;;;;;;;;;4.67;3.33;;;;;26.37;49.51;98093.84;4929070;28;102455;-62
2022/07/01 05:11:00;;;;;;;;;4.00;4.00;;;;;26.37;49.44;98088.31;4938998;28;104072;-62
2022/07/01 05:13:27;;;;;;;;;3.00;3.00;;;;;26.37;49.54;98093.84;4928556;28;102175;-62
2022/07/01 05:15:54;;;;;;;;;2.67;2.67;;;;;26.37;49.47;98086.34;4917990;28;104401;-62
2022/07/01 05:23:53;;;;;;;;;3.67;2.33;;;;;26.39;49.53;98088.78;4918421;28;102563;-62
2022/07/01 05:26:20;;;;;;;;;2.00;2.00;;;;;26.38;49.53;98093.53;4915197;28;102320;-62
2022/07/01 05:28:47;;;;;;;;;2.00;2.00;;;;;26.39;49.46;98084.06;4934353;28;102505;-62
2022/07/01 05:31:14;;;;;;;;;3.33;3.33;;;;;26.39;49.39;98080.47;4934240;28;104076;-61
2022/07/01 05:33:42;;;;;;;;;2.33;2.00;;;;;26.40;49.50;98076.56;4938082;28;102185;-61
2022/07/01 05:36:09;;;;;;;;;5.00;3.00;;;;;26.40;49.51;98094.03;4929634;28;102541;-61
2022/07/01 05:38:36;;;;;;;;;4.00;4.00;;;;;26.40;49.51;98091.25;4933000;28;102170;-62
2022/07/01 05:41:04;;;;;;;;;3.33;3.33;;;;;26.40;49.45;98090.44;4929924;28;104153;-62
2022/07/01 05:43:31;;;;;;;;;3.00;2.67;;;;;26.40;49.43;98107.91;4935600;28;102478;-62
2022/07/01 05:45:58;;;;;;;;;4.00;3.67;;;;;26.39;49.46;98100.69;4936027;28;102242;-61
2022/07/01 05:48:25;;;;;;;;;2.00;2.00;;;;;26.40;49.52;98095.97;4937324;28;102148;-62
2022/07/01 05:50:53;;;;;;;;;3.00;2.67;;;;;26.41;49.40;98103.16;4937843;28;104450;-62
2022/07/01 05:53:20;;;;;;;;;1.00;1.00;;;;;26.41;49.36;98100.41;4922190;28;102601;-62
2022/07/01 05:55:47;;;;;;;;;2.67;2.00;;;;;26.40;49.49;98094.03;4928137;28;104113;-62
2022/07/01 05:58:14;;;;;;;;;4.00;4.00;;;;;26.42;49.36;98089.00;4926373;28;102474;-62
2022/07/01 06:00:42;;;;;;;;;3.00;3.00;;;;;26.42;49.70;98089.00;4921951;28;104117;-61
2022/07/01 06:03:10;;;;;;;;;2.00;2.00;;;;;26.42;49.29;98088.19;4919589;28;102399;-62
2022/07/01 06:05:37;;;;;;;;;3.00;3.00;;;;;26.43;49.29;98096.16;4932237;28;102888;-62
2022/07/01 06:08:05;;;;;;;;;2.00;2.00;;;;;26.44;49.32;98102.53;4930432;28;102213;-62
2022/07/01 06:10:33;;;;;;;;;3.00;3.00;;;;;26.43;49.28;98093.38;4931009;28;104405;-62
2022/07/01 06:13:01;;;;;;;;;3.67;2.67;;;;;26.43;49.33;98095.38;4934230;28;102091;-62
2022/07/01 06:15:28;;;;;;;;;4.00;4.00;;;;;26.43;49.31;98096.16;4925856;28;103986;-61
2022/07/01 06:17:56;;;;;;;;;3.00;3.00;;;;;26.45;49.18;98106.94;4928201;28;102417;-62
2022/07/01 06:20:23;;;;;;;;;3.00;2.33;;;;;26.42;49.34;98089.00;4930196;28;104107;-62
2022/07/01 06:22:50;;;;;;;;;3.33;3.33;;;;;26.43;49.51;98087.84;4945542;28;102307;-62
2022/07/01 06:25:18;;;;;;;;;4.00;2.33;;;;;26.43;49.20;98090.63;4938567;28;102431;-62
2022/07/01 06:27:45;;;;;;;;;2.67;2.33;;;;;26.43;49.28;98096.16;4920623;28;102295;-62
2022/07/01 06:30:13;;;;;;;;;3.33;3.33;;;;;26.44;49.25;98089.50;4929649;28;104085;-62
2022/07/01 06:32:40;;;;;;;;;4.00;4.00;;;;;26.44;49.28;98081.16;4934207;28;102422;-62
2022/07/01 06:35:08;;;;;;;;;2.67;2.67;;;;;26.46;49.48;98078.91;4929857;28;105810;-62
2022/07/01 06:37:35;;;;;;;;;2.00;2.00;;;;;26.46;49.01;98084.47;4930571;28;102593;-62
2022/07/01 06:40:03;;;;;;;;;3.00;3.00;;;;;26.47;49.17;98086.09;4930776;28;104244;-61
2022/07/01 06:42:31;;;;;;;;;2.67;2.67;;;;;26.47;49.34;98082.50;4920739;28;103255;-62
2022/07/01 06:44:58;;;;;;;;;2.00;2.00;;;;;26.46;49.28;98087.22;4932959;28;104045;-62
2022/07/01 06:47:25;;;;;;;;;2.00;2.00;;;;;26.46;49.13;98089.19;4928936;28;102494;-62
2022/07/01 06:49:52;;;;;;;;;3.33;3.33;;;;;26.46;49.27;98090.00;4930619;28;104136;-62
2022/07/01 06:52:20;;;;;;;;;4.00;4.00;;;;;26.46;49.27;98087.22;4931744;28;102221;-62
2022/07/01 06:54:47;;;;;;;;;2.67;2.67;;;;;26.47;49.20;98086.09;4931936;28;105629;-62
2022/07/01 06:57:14;;;;;;;;;2.33;2.00;;;;;26.47;49.27;98083.31;4934874;28;102408;-61
2022/07/01 06:59:42;;;;;;;;;3.33;3.33;;;;;26.48;49.39;98086.88;4934855;28;104026;-62
2022/07/01 07:02:09;;;;;;;;;2.67;2.67;;;;;26.48;49.24;98082.16;4962951;28;102984;-62
2022/07/01 07:04:36;;;;;;;;;3.00;2.67;;;;;26.48;49.26;98087.72;4933881;28;102568;-62
2022/07/01 07:07:23;;;;;;;;;2.00;2.00;;;;;26.49;49.08;98078.28;4930699;28;103047;-62
2022/07/01 07:09:50;;;;;;;;;1.67;1.67;;;;;26.50;49.14;98081.88;4939259;28;103609;-62
2022/07/01 07:12:17;;;;;;;;;3.00;3.00;;;;;26.51;49.17;98081.56;4931090;28;102640;-61
2022/07/01 07:14:44;;;;;;;;;2.00;2.00;;;;;26.51;49.19;98081.56;4936340;28;102279;-62
2022/07/01 07:17:11;;;;;;;;;2.33;2.33;;;;;26.52;49.15;98082.38;4930005;28;102476;-62
2022/07/01 07:19:38;;;;;;;;;2.67;2.67;;;;;26.52;49.00;98082.38;4923987;28;104220;-62
2022/07/01 07:22:06;;;;;;;;;3.00;3.00;;;;;26.51;49.09;98089.88;4926916;28;109127;-62
2022/07/01 07:24:33;;;;;;;;;3.00;3.00;;;;;26.52;49.22;98093.47;4928404;28;102219;-62
2022/07/01 07:27:00;;;;;;;;;2.33;2.33;;;;;26.52;49.19;98094.25;4935582;28;102520;-62
2022/07/01 07:29:28;;;;;;;;;2.33;1.67;;;;;26.52;49.07;98083.16;4935719;28;104433;-62
2022/07/01 07:31:55;;;;;;;;;3.00;3.00;;;;;26.52;48.95;98088.72;4930764;28;102310;-62
2022/07/01 07:34:22;;;;;;;;;3.00;3.00;;;;;26.53;49.27;98090.34;4928683;28;102144;-62
2022/07/01 07:36:49;;;;;;;;;2.67;2.00;;;;;26.55;49.18;98092.81;4923165;28;102323;-62
2022/07/01 07:39:16;;;;;;;;;2.33;2.33;;;;;26.55;48.97;98090.88;4932790;28;104727;-61
2022/07/01 07:41:44;;;;;;;;;4.00;4.00;;;;;26.55;49.08;98088.09;4942804;28;102084;-62
2022/07/01 07:44:11;;;;;;;;;3.33;2.67;;;;;26.56;49.16;98084.19;4933683;28;102370;-62
2022/07/01 07:46:38;;;;;;;;;1.00;1.00;;;;;26.57;49.23;98085.00;4931460;28;102677;-62
2022/07/01 07:49:05;;;;;;;;;2.67;2.67;;;;;26.56;49.09;98086.97;4928563;28;104416;-62
2022/07/01 07:51:32;;;;;;;;;2.00;2.00;;;;;26.57;49.05;98093.31;4929551;28;102516;-62
2022/07/01 07:54:02;;;;;;;;;2.00;2.00;;;;;26.57;49.25;98091.34;4932497;28;102044;-62
2022/07/01 07:56:30;;;;;;;;;2.67;2.67;;;;;26.57;49.07;98088.59;4934480;28;102517;-62
2022/07/01 07:58:57;;;;;;;;;2.00;2.00;;;;;26.56;49.08;98077.84;4926887;28;104063;-62
2022/07/01 08:01:24;;;;;;;;;2.00;2.00;;;;;26.58;49.11;98081.09;4913251;28;102445;-61
2022/07/01 08:03:51;;;;;;;;;2.00;2.00;;;;;26.58;49.09;98084.69;4918545;28;101897;-61
2022/07/01 08:06:19;;;;;;;;;2.00;2.00;;;;;26.58;49.11;98079.13;4919337;28;102379;-61
2022/07/01 08:08:46;;;;;;;;;3.00;3.00;;;;;26.60;49.02;98085.19;4967210;28;104032;-62
2022/07/01 08:11:13;;;;;;;;;4.00;4.00;;;;;26.60;48.94;98085.19;4933749;28;102279;-62
2022/07/01 08:13:40;;;;;;;;;3.00;3.00;;;;;26.61;49.01;98080.47;4924153;28;102177;-61
2022/07/01 08:16:08;;;;;;;;;1.00;1.00;;;;;26.62;49.04;98088.47;4920544;28;102271;-62
2022/07/01 08:18:35;;;;;;;;;3.00;3.00;;;;;26.62;49.04;98091.22;4929977;28;104221;-62
2022/07/01 08:21:02;;;;;;;;;2.33;2.33;;;;;26.63;49.02;98089.28;4929054;28;102473;-62
2022/07/01 08:23:29;;;;;;;;;3.00;2.67;;;;;26.63;48.95;98094.81;4933420;28;102596;-62
2022/07/01 08:25:56;;;;;;;;;1.00;1.00;;;;;26.64;48.98;98108.38;4931385;28;102682;-62
2022/07/01 08:28:23;;;;;;;;;2.00;2.00;;;;;26.63;49.00;98097.59;4935849;28;104156;-61
2022/07/01 08:30:51;;;;;;;;;2.00;2.00;;;;;26.65;48.89;98109.22;4936749;28;102162;-62
2022/07/01 08:33:18;;;;;;;;;4.67;3.67;;;;;26.64;49.06;98100.06;4928615;28;102146;-61
2022/07/01 08:35:45;;;;;;;;;1.00;1.00;;;;;26.66;49.06;98110.03;4932662;28;103209;-62
2022/07/01 08:38:12;;;;;;;;;3.00;3.00;;;;;26.65;48.88;98114.75;4929707;28;104065;-61
2022/07/01 08:40:40;;;;;;;;;3.00;2.33;;;;;26.67;48.99;98104.16;4932132;28;103105;-62
2022/07/01 08:43:07;;;;;;;;;2.67;1.67;;;;;26.68;48.95;98116.88;4930920;28;102341;-62
2022/07/01 08:45:35;;;;;;;;;2.75;2.25;;;;;26.68;49.04;98113.28;4935641;28;105531;-62
2022/07/01 08:48:03;;;;;;;;;3.67;3.00;;;;;26.69;48.95;98110.22;4932807;28;104012;-62
2022/07/01 08:50:35;;;;;;;;;1.00;1.00;;;;;26.69;48.90;98117.72;4965760;28;102296;-61
2022/07/01 08:53:02;;;;;;;;;2.67;2.67;;;;;26.70;48.77;98116.56;4935879;28;102457;-62
2022/07/01 08:55:30;;;;;;;;;3.67;3.33;;;;;26.70;48.86;98127.66;4939707;28;102368;-62
2022/07/01 08:57:57;;;;;;;;;1.00;1.00;;;;;26.71;48.87;98123.75;4931001;28;104052;-61
2022/07/01 09:00:31;;;;;;;;;2.00;2.00;;;;;26.71;48.82;98118.19;4940624;28;102152;-62
2022/07/01 09:03:02;;;;;;;;;0.67;0.67;;;;;26.72;48.93;98130.94;4923504;28;102336;-62
2022/07/01 09:05:30;;;;;;;;;2.00;2.00;;;;;26.71;49.00;98121.78;4936363;28;102253;-61
2022/07/01 09:07:58;;;;;;;;;0.33;0.33;;;;;26.72;48.73;98125.38;4934355;28;104320;-61
2022/07/01 09:10:25;;;;;;;;;2.00;2.00;;;;;26.74;48.85;98125.91;4939898;28;102116;-61
2022/07/01 09:12:53;;;;;;;;;2.00;2.00;;;;;26.74;48.93;98125.91;4937436;28;102146;-62
2022/07/01 09:15:21;;;;;;;;;2.33;2.33;;;;;26.74;48.80;98118.41;4927821;28;102184;-62
2022/07/01 09:17:48;;;;;;;;;2.00;1.67;;;;;26.76;48.88;98121.66;4927576;28;104117;-62
2022/07/01 09:20:33;;;;;;;;;2.67;2.67;;;;;26.76;48.67;98126.38;4926614;28;102413;-62
2022/07/01 09:23:10;;;;;;;;;2.00;2.00;;;;;26.77;48.85;98122.47;4933046;28;102119;-62
2022/07/01 09:25:47;;;;;;;;;2.33;2.33;;;;;26.77;48.69;98116.94;4930674;28;102276;-61
2022/07/01 09:28:23;;;;;;;;;3.67;2.67;;;;;26.77;48.77;98116.94;4926427;28;104136;-62
2022/07/01 09:30:51;;;;;;;;;1.00;1.00;;;;;26.77;49.01;98116.94;4917860;28;102465;-62
2022/07/01 09:33:24;;;;;;;;;4.00;3.00;;;;;26.77;48.87;98112.22;4969105;28;102530;-62
2022/07/01 09:35:52;;;;;;;;;3.33;2.00;;;;;26.78;48.95;98113.03;4931871;28;102455;-62
2022/07/01 09:38:20;;;;;;;;;3.00;3.00;;;;;26.77;48.64;98114.97;4932943;28;104059;-62
2022/07/01 09:41:00;;;;;;;;;2.33;2.33;;;;;26.80;48.96;98113.50;4920062;28;111742;-62
2022/07/01 09:43:31;;;;;;;;;0.33;0.00;;;;;26.80;48.74;98117.09;4930113;28;102343;-62
2022/07/01 09:46:09;;;;;;;;;1.00;1.00;;;;;26.82;48.81;98114.03;4933825;28;102725;-62
2022/07/01 09:48:36;;;;;;;;;2.00;1.67;;;;;26.82;48.93;98116.78;4929590;28;108947;-62
2022/07/01 09:51:07;;;;;;;;;2.00;2.00;;;;;26.83;48.86;98121.22;4920814;28;102166;-61
2022/07/01 09:53:41;;;;;;;;;2.67;2.67;;;;;26.82;48.98;98109.28;4929786;28;102286;-62
2022/07/01 09:56:08;;;;;;;;;2.67;2.67;;;;;26.85;48.81;98118.94;4932256;28;102530;-61
2022/07/01 09:58:35;;;;;;;;;2.67;2.67;;;;;26.83;48.81;98107.34;4933747;28;104205;-62
2022/07/01 10:01:03;;;;;;;;;2.00;2.00;;;;;26.83;48.76;98119.25;4937674;28;102632;-62
2022/07/01 10:03:31;;;;;;;;;3.00;3.00;;;;;26.86;48.59;98117.81;4933368;28;102077;-62
2022/07/01 10:06:08;;;;;;;;;2.00;2.00;;;;;26.85;48.71;98108.69;4944086;28;102557;-62
2022/07/01 10:09:12;;;;;;;;;3.00;2.33;;;;;26.86;48.58;98106.72;4926214;28;108768;-62
2022/07/01 10:11:42;;;;;;;;;2.00;2.00;;;;;26.88;48.91;98104.47;4927050;28;105013;-61
2022/07/01 10:14:11;;;;;;;;;2.67;2.67;;;;;26.87;48.72;98106.41;4920716;28;102439;-62
2022/07/01 10:16:38;;;;;;;;;1.00;1.00;;;;;26.89;48.61;98103.31;4939873;28;102197;-62
2022/07/01 10:19:25;;;;;;;;;1.00;1.00;;;;;26.89;48.72;98101.34;4969036;28;104181;-62
2022/07/01 10:21:57;;;;;;;;;2.00;2.00;;;;;26.90;48.65;98091.06;4943264;28;102394;-61
2022/07/01 10:24:25;;;;;;;;;2.67;2.67;;;;;26.90;48.59;98094.66;4937835;28;109764;-61
2022/07/01 10:26:53;;;;;;;;;2.00;2.00;;;;;26.92;48.56;98086.03;4938990;28;102593;-61
2022/07/01 10:29:33;;;;;;;;;2.33;1.67;;;;;26.90;48.52;98089.13;4935506;28;103482;-61
2022/07/01 10:32:07;;;;;;;;;1.67;1.67;;;;;26.92;48.50;98086.88;4931413;28;104371;-61
2022/07/01 10:34:37;;;;;;;;;1.67;1.67;;;;;26.92;48.71;98092.41;4934103;28;102122;-61
2022/07/01 10:37:09;;;;;;;;;2.00;2.00;;;;;26.93;48.70;98087.66;4927897;28;102500;-61
2022/07/01 10:39:56;;;;;;;;;2.00;2.00;;;;;26.93;48.75;98076.56;4930094;28;105116;-62
2022/07/01 10:42:34;;;;;;;;;3.00;2.33;;;;;26.93;48.77;98071.81;4931922;28;102547;-62
2022/07/01 10:45:05;;;;;;;;;2.33;2.00;;;;;26.94;48.52;98072.66;4928472;28;103714;-61
2022/07/01 10:47:32;;;;;;;;;2.00;2.00;;;;;26.95;48.45;98080.66;4941425;28;102500;-61
2022/07/01 10:50:12;;;;;;;;;2.33;1.67;;;;;26.97;48.80;98063.69;4945241;28;104119;-62
2022/07/01 10:53:10;;;;;;;;;2.67;1.67;;;;;26.96;48.78;98065.66;4928074;28;102342;-62
2022/07/01 10:55:44;;;;;;;;;2.67;2.00;;;;;26.98;48.57;98068.09;4930439;28;104056;-62
2022/07/01 10:58:11;;;;;;;;;2.00;1.33;;;;;26.97;48.78;98061.72;4937649;28;102338;-62
2022/07/01 11:00:45;;;;;;;;;2.00;1.00;;;;;26.98;48.49;98060.59;4923795;28;104170;-61
2022/07/01 11:03:20;;;;;;;;;2.00;2.00;;;;;26.98;48.77;98055.03;4929607;28;104706;-61
2022/07/01 11:05:50;;;;;;;;;1.00;1.00;;;;;27.00;48.72;98063.06;4930643;28;102528;-62
2022/07/01 11:08:17;;;;;;;;;3.00;3.00;;;;;27.01;48.53;98056.38;4939366;28;102165;-62
2022/07/01 11:10:51;;;;;;;;;2.00;2.00;;;;;27.00;48.70;98050.00;4938995;28;104383;-62
2022/07/01 11:13:18;;;;;;;;;3.00;3.00;;;;;27.02;48.38;98044.09;4938917;28;102322;-61
2022/07/01 11:15:47;;;;;;;;;2.33;2.33;;;;;27.02;48.61;98044.09;4929572;28;102654;-62
2022/07/01 11:18:15;;;;;;;;;2.33;2.33;;;;;27.02;48.29;98050.47;4938853;28;102242;-62
2022/07/01 11:20:42;;;;;;;;;1.00;1.00;;;;;27.02;48.48;98041.31;4937208;28;104006;-61
2022/07/01 11:23:09;;;;;;;;;2.67;2.00;;;;;27.03;48.35;98037.41;4933763;28;102120;-62
2022/07/01 11:25:37;;;;;;;;;3.00;3.00;;;;;27.04;48.47;98039.06;4936916;28;102175;-61
2022/07/01 11:28:04;;;;;;;;;1.00;0.67;;;;;27.05;48.38;98035.16;4934033;28;102561;-61
2022/07/01 11:30:31;;;;;;;;;1.33;1.33;;;;;27.05;48.48;98029.59;4944374;28;104073;-62
2022/07/01 11:32:58;;;;;;;;;2.67;2.67;;;;;27.05;48.31;98024.06;4937338;28;102139;-62
2022/07/01 11:41:06;;;;;;;;;1.33;1.33;;;;;27.06;48.58;98026.50;4928663;28;108861;-61
2022/07/01 11:43:35;;;;;;;;;2.00;2.00;;;;;27.07;48.51;98018.97;4948498;28;104512;-61
2022/07/01 11:46:04;;;;;;;;;1.67;1.67;;;;;27.07;48.59;98016.22;4937581;28;102624;-62
2022/07/01 11:48:35;;;;;;;;;2.00;2.00;;;;;27.08;48.40;98015.06;4966132;28;102584;-62
2022/07/01 11:51:06;;;;;;;;;2.00;2.00;;;;;27.10;48.62;98021.13;4937984;28;109682;-62
2022/07/01 11:53:34;;;;;;;;;1.00;1.00;;;;;27.11;48.48;98016.41;4937224;28;103974;-62